createdAt,value
2022-12-19T00:00:15.238Z,376
2022-12-19T00:01:13.754Z,380
2022-12-19T00:02:14.788Z,384
2022-12-19T00:03:13.542Z,385
2022-12-19T00:04:14.604Z,389
2022-12-19T00:05:13.837Z,385
2022-12-19T00:06:13.836Z,389
2022-12-19T00:07:13.723Z,383
2022-12-19T00:08:17.366Z,380
2022-12-19T00:09:14.458Z,382
2022-12-19T00:10:13.447Z,387
2022-12-19T00:12:19.045Z,379
2022-12-19T00:13:13.468Z,375
2022-12-19T00:14:13.483Z,384
2022-12-19T00:15:14.138Z,382
2022-12-19T00:16:13.466Z,388
2022-12-19T00:17:14.023Z,392
2022-12-19T00:18:13.451Z,384
2022-12-19T00:19:13.634Z,395
2022-12-19T00:20:16.600Z,377
2022-12-19T00:21:14.388Z,378
2022-12-19T00:22:13.286Z,381
2022-12-19T00:23:13.523Z,386
2022-12-19T00:24:21.083Z,390
2022-12-19T00:25:14.170Z,394
2022-12-19T00:26:13.528Z,390
2022-12-19T00:27:13.778Z,388
2022-12-19T00:28:13.772Z,391
2022-12-19T00:30:14.813Z,396
2022-12-19T00:32:13.404Z,394
2022-12-19T00:33:13.265Z,389
2022-12-19T00:34:13.027Z,395
2022-12-19T00:35:13.312Z,388
2022-12-19T00:36:13.557Z,379
2022-12-19T00:37:13.392Z,386
2022-12-19T00:38:13.359Z,388
2022-12-19T00:39:13.834Z,386
2022-12-19T00:40:14.345Z,377
2022-12-19T00:41:13.656Z,384
2022-12-19T00:42:13.654Z,378
2022-12-19T00:43:14.003Z,400
2022-12-19T00:44:13.016Z,388
2022-12-19T00:45:13.148Z,394
2022-12-19T00:46:13.231Z,389
2022-12-19T00:47:13.743Z,390
2022-12-19T00:48:14.149Z,384
2022-12-19T00:49:14.232Z,378
2022-12-19T00:50:13.658Z,372
2022-12-19T00:51:13.657Z,377
2022-12-19T00:52:13.946Z,382
2022-12-19T00:53:14.372Z,385
2022-12-19T00:54:13.207Z,388
2022-12-19T00:55:18.714Z,382
2022-12-19T00:56:13.737Z,384
2022-12-19T00:57:14.027Z,382
2022-12-19T00:58:13.328Z,390
2022-12-19T00:59:13.589Z,395
2022-12-19T01:00:14.112Z,386
2022-12-19T01:01:16.076Z,380
2022-12-19T01:02:14.167Z,393
2022-12-19T01:03:13.488Z,385
2022-12-19T01:04:30.805Z,379
2022-12-19T01:06:13.482Z,394
2022-12-19T01:07:13.336Z,384
2022-12-19T01:08:13.740Z,386
2022-12-19T01:09:13.673Z,381
2022-12-19T01:10:13.901Z,383
2022-12-19T01:11:13.205Z,382
2022-12-19T01:12:13.894Z,378
2022-12-19T01:13:14.097Z,374
2022-12-19T01:14:17.381Z,380
2022-12-19T01:15:14.188Z,396
2022-12-19T01:16:13.183Z,392
2022-12-19T01:17:13.809Z,393
2022-12-19T01:18:13.929Z,392
2022-12-19T01:19:14.195Z,385
2022-12-19T01:20:13.658Z,382
2022-12-19T01:21:14.228Z,387
2022-12-19T01:22:13.531Z,388
2022-12-19T01:23:13.097Z,392
2022-12-19T01:24:13.667Z,401
2022-12-19T01:26:13.215Z,383
2022-12-19T01:27:13.419Z,360
2022-12-19T01:28:13.707Z,402
2022-12-19T01:29:14.026Z,382
2022-12-19T01:30:14.328Z,381
2022-12-19T01:31:13.879Z,380
2022-12-19T01:32:14.107Z,367
2022-12-19T01:33:13.544Z,376
2022-12-19T01:34:13.846Z,389
2022-12-19T01:35:21.141Z,391
2022-12-19T01:36:13.217Z,396
2022-12-19T01:37:13.325Z,392
2022-12-19T01:38:13.193Z,391
2022-12-19T01:39:12.809Z,396
2022-12-19T01:40:13.454Z,403
2022-12-19T01:41:13.603Z,405
2022-12-19T01:42:14.061Z,396
2022-12-19T01:43:14.558Z,387
2022-12-19T01:44:14.091Z,390
2022-12-19T01:45:14.065Z,391
2022-12-19T01:46:13.320Z,383
2022-12-19T01:47:14.150Z,379
2022-12-19T01:48:13.217Z,387
2022-12-19T01:49:13.138Z,381
2022-12-19T01:50:13.773Z,368
2022-12-19T01:51:14.156Z,387
2022-12-19T01:52:20.775Z,370
2022-12-19T01:53:13.630Z,373
2022-12-19T01:54:13.731Z,372
2022-12-19T01:55:14.366Z,371
2022-12-19T01:56:13.982Z,377
2022-12-19T01:57:13.362Z,375
2022-12-19T01:58:13.426Z,365
2022-12-19T01:59:13.246Z,375
2022-12-19T02:00:14.521Z,384
2022-12-19T02:01:14.288Z,378
2022-12-19T02:02:13.583Z,377
2022-12-19T02:03:13.983Z,378
2022-12-19T02:05:14.333Z,383
2022-12-19T02:06:13.484Z,373
2022-12-19T02:07:16.230Z,382
2022-12-19T02:08:13.874Z,385
2022-12-19T02:09:13.461Z,379
2022-12-19T02:10:14.067Z,374
2022-12-19T02:11:13.571Z,381
2022-12-19T02:12:13.886Z,386
2022-12-19T02:13:13.976Z,389
2022-12-19T02:14:13.308Z,370
2022-12-19T02:15:14.256Z,383
2022-12-19T02:16:13.396Z,385
2022-12-19T02:17:14.106Z,381
2022-12-19T02:18:13.131Z,379
2022-12-19T02:19:13.370Z,383
2022-12-19T02:21:13.998Z,387
2022-12-19T02:22:19.158Z,379
2022-12-19T02:23:14.200Z,380
2022-12-19T02:24:13.580Z,376
2022-12-19T02:25:14.022Z,379
2022-12-19T02:26:13.056Z,383
2022-12-19T02:27:13.632Z,381
2022-12-19T02:28:13.730Z,375
2022-12-19T02:30:14.041Z,374
2022-12-19T02:31:17.554Z,388
2022-12-19T02:32:13.310Z,391
2022-12-19T02:33:13.799Z,380
2022-12-19T02:34:14.061Z,385
2022-12-19T02:35:13.695Z,383
2022-12-19T02:36:13.458Z,377
2022-12-19T02:37:14.019Z,376
2022-12-19T02:38:13.521Z,381
2022-12-19T02:39:14.050Z,376
2022-12-19T02:41:13.777Z,375
2022-12-19T02:42:13.676Z,372
2022-12-19T02:43:14.038Z,371
2022-12-19T02:44:14.201Z,368
2022-12-19T02:46:13.260Z,370
2022-12-19T02:47:14.197Z,369
2022-12-19T02:48:17.675Z,376
2022-12-19T02:49:15.633Z,387
2022-12-19T02:50:13.718Z,379
2022-12-19T02:51:13.599Z,359
2022-12-19T02:52:13.842Z,366
2022-12-19T02:53:14.130Z,378
2022-12-19T02:54:13.224Z,382
2022-12-19T02:55:13.669Z,376
2022-12-19T02:56:13.771Z,382
2022-12-19T02:58:13.414Z,396
2022-12-19T02:59:13.424Z,385
2022-12-19T03:00:14.591Z,382
2022-12-19T03:01:14.621Z,388
2022-12-19T03:02:13.870Z,386
2022-12-19T03:04:14.192Z,382
2022-12-19T03:06:13.647Z,383
2022-12-19T03:07:13.791Z,397
2022-12-19T03:08:12.998Z,395
2022-12-19T03:09:13.357Z,379
2022-12-19T03:10:13.829Z,376
2022-12-19T03:11:13.919Z,382
2022-12-19T03:12:17.264Z,389
2022-12-19T03:13:13.954Z,390
2022-12-19T03:14:14.113Z,395
2022-12-19T03:15:13.617Z,404
2022-12-19T03:17:13.877Z,410
2022-12-19T03:18:13.696Z,400
2022-12-19T03:19:13.873Z,391
2022-12-19T03:20:13.402Z,385
2022-12-19T03:23:13.367Z,382
2022-12-19T03:24:13.570Z,392
2022-12-19T03:25:14.003Z,381
2022-12-19T03:26:13.328Z,370
2022-12-19T03:27:13.914Z,366
2022-12-19T03:28:13.025Z,377
2022-12-19T03:29:13.388Z,368
2022-12-19T03:30:13.672Z,380
2022-12-19T03:31:13.828Z,379
2022-12-19T03:32:13.312Z,360
2022-12-19T03:33:13.573Z,398
2022-12-19T03:34:13.932Z,373
2022-12-19T03:36:13.538Z,375
2022-12-19T03:38:13.260Z,384
2022-12-19T03:39:13.576Z,380
2022-12-19T03:40:13.840Z,374
2022-12-19T03:41:14.184Z,380
2022-12-19T03:42:13.244Z,379
2022-12-19T03:43:13.743Z,372
2022-12-19T03:44:13.458Z,366
2022-12-19T03:45:13.992Z,361
2022-12-19T03:46:13.038Z,359
2022-12-19T03:47:13.493Z,369
2022-12-19T03:48:13.587Z,379
2022-12-19T03:49:13.802Z,376
2022-12-19T03:50:14.231Z,372
2022-12-19T03:51:13.883Z,368
2022-12-19T03:52:13.070Z,367
2022-12-19T03:53:13.388Z,376
2022-12-19T03:54:13.636Z,386
2022-12-19T03:55:13.200Z,363
2022-12-19T03:56:13.562Z,355
2022-12-19T03:57:13.850Z,361
2022-12-19T03:58:14.104Z,375
2022-12-19T03:59:13.299Z,379
2022-12-19T04:00:14.253Z,376
2022-12-19T04:01:13.917Z,374
2022-12-19T04:02:13.530Z,380
2022-12-19T04:03:14.232Z,378
2022-12-19T04:06:13.397Z,381
2022-12-19T04:07:13.976Z,376
2022-12-19T04:08:14.219Z,369
2022-12-19T04:09:17.948Z,366
2022-12-19T04:10:14.305Z,369
2022-12-19T04:11:13.642Z,379
2022-12-19T04:12:14.152Z,382
2022-12-19T04:13:13.230Z,377
2022-12-19T04:14:13.271Z,382
2022-12-19T04:15:13.817Z,385
2022-12-19T04:16:14.310Z,376
2022-12-19T04:17:13.448Z,389
2022-12-19T04:18:14.184Z,384
2022-12-19T04:19:13.327Z,371
2022-12-19T04:20:14.023Z,363
2022-12-19T04:21:13.535Z,364
2022-12-19T04:22:13.964Z,381
2022-12-19T04:23:12.936Z,383
2022-12-19T04:24:13.430Z,381
2022-12-19T04:25:14.290Z,376
2022-12-19T04:26:13.419Z,372
2022-12-19T04:27:13.838Z,373
2022-12-19T04:28:13.105Z,374
2022-12-19T04:29:13.176Z,376
2022-12-19T04:30:13.780Z,375
2022-12-19T04:31:14.017Z,377
2022-12-19T04:32:13.217Z,364
2022-12-19T04:33:13.223Z,363
2022-12-19T04:34:13.453Z,371
2022-12-19T04:35:14.153Z,384
2022-12-19T04:36:13.333Z,386
2022-12-19T04:37:13.845Z,385
2022-12-19T04:38:14.176Z,390
2022-12-19T04:39:13.306Z,375
2022-12-19T04:40:13.420Z,350
2022-12-19T04:41:13.938Z,356
2022-12-19T04:42:13.400Z,367
2022-12-19T04:43:13.418Z,378
2022-12-19T04:44:13.852Z,377
2022-12-19T04:45:13.632Z,364
2022-12-19T04:46:14.073Z,370
2022-12-19T04:47:13.875Z,374
2022-12-19T04:48:13.974Z,373
2022-12-19T04:49:13.315Z,376
2022-12-19T04:50:13.654Z,380
2022-12-19T04:51:14.059Z,373
2022-12-19T04:52:14.091Z,365
2022-12-19T04:53:13.770Z,362
2022-12-19T04:54:13.816Z,368
2022-12-19T04:55:14.393Z,365
2022-12-19T04:56:13.555Z,359
2022-12-19T04:57:21.829Z,360
2022-12-19T04:58:17.636Z,374
2022-12-19T04:59:13.496Z,383
2022-12-19T05:00:14.623Z,376
2022-12-19T05:01:14.445Z,350
2022-12-19T05:02:14.322Z,396
2022-12-19T05:03:21.874Z,387
2022-12-19T05:04:14.221Z,377
2022-12-19T05:05:13.547Z,362
2022-12-19T05:06:13.607Z,364
2022-12-19T05:07:14.052Z,372
2022-12-19T05:08:13.194Z,364
2022-12-19T05:09:13.646Z,351
2022-12-19T05:10:14.421Z,363
2022-12-19T05:11:19.198Z,362
2022-12-19T05:12:13.807Z,366
2022-12-19T05:13:14.090Z,370
2022-12-19T05:14:13.469Z,385
2022-12-19T05:15:27.937Z,384
2022-12-19T05:16:13.300Z,363
2022-12-19T05:17:14.034Z,369
2022-12-19T05:18:14.011Z,373
2022-12-19T05:20:14.118Z,379
2022-12-19T05:21:13.366Z,381
2022-12-19T05:22:13.586Z,368
2022-12-19T05:23:17.898Z,400
2022-12-19T05:24:13.424Z,371
2022-12-19T05:25:14.469Z,352
2022-12-19T05:26:13.874Z,371
2022-12-19T05:27:14.168Z,366
2022-12-19T05:28:13.352Z,380
2022-12-19T05:29:13.769Z,382
2022-12-19T05:30:14.177Z,377
2022-12-19T05:31:13.206Z,374
2022-12-19T05:32:13.828Z,364
2022-12-19T05:33:13.100Z,369
2022-12-19T05:34:14.083Z,368
2022-12-19T05:35:13.704Z,361
2022-12-19T05:36:13.810Z,373
2022-12-19T05:37:13.227Z,377
2022-12-19T05:38:13.502Z,372
2022-12-19T05:39:13.176Z,373
2022-12-19T05:40:13.481Z,376
2022-12-19T05:41:13.773Z,368
2022-12-19T05:42:14.033Z,367
2022-12-19T05:43:13.400Z,368
2022-12-19T05:44:14.072Z,377
2022-12-19T05:45:13.222Z,382
2022-12-19T05:46:13.350Z,365
2022-12-19T05:47:13.562Z,378
2022-12-19T05:48:13.974Z,391
2022-12-19T05:49:13.055Z,385
2022-12-19T05:50:14.194Z,384
2022-12-19T05:52:13.498Z,385
2022-12-19T05:53:14.232Z,382
2022-12-19T05:54:13.940Z,381
2022-12-19T05:55:14.480Z,377
2022-12-19T05:56:13.707Z,382
2022-12-19T05:57:13.655Z,377
2022-12-19T05:58:13.466Z,364
2022-12-19T05:59:13.852Z,369
2022-12-19T06:00:14.267Z,377
2022-12-19T06:01:14.716Z,375
2022-12-19T06:02:13.861Z,376
2022-12-19T06:03:14.291Z,368
2022-12-19T06:04:14.626Z,378
2022-12-19T06:05:15.170Z,383
2022-12-19T06:06:14.324Z,372
2022-12-19T06:07:19.328Z,368
2022-12-19T06:08:13.926Z,373
2022-12-19T06:09:14.456Z,369
2022-12-19T06:10:13.918Z,368
2022-12-19T06:11:13.480Z,373
2022-12-19T06:12:13.660Z,376
2022-12-19T06:13:13.663Z,375
2022-12-19T06:14:13.316Z,378
2022-12-19T06:15:14.815Z,368
2022-12-19T06:16:14.250Z,363
2022-12-19T06:17:14.701Z,366
2022-12-19T06:18:13.465Z,377
2022-12-19T06:19:14.331Z,378
2022-12-19T06:20:14.037Z,373
2022-12-19T06:21:13.944Z,369
2022-12-19T06:22:13.608Z,379
2022-12-19T06:23:13.950Z,369
2022-12-19T06:24:13.651Z,365
2022-12-19T06:25:13.812Z,369
2022-12-19T06:26:19.130Z,372
2022-12-19T06:27:14.020Z,377
2022-12-19T06:28:13.915Z,370
2022-12-19T06:29:13.313Z,369
2022-12-19T06:30:14.084Z,366
2022-12-19T06:31:13.961Z,363
2022-12-19T06:32:13.466Z,370
2022-12-19T06:33:13.942Z,369
2022-12-19T06:34:32.981Z,374
2022-12-19T06:35:14.394Z,378
2022-12-19T06:36:13.941Z,373
2022-12-19T06:37:13.735Z,376
2022-12-19T06:38:14.307Z,375
2022-12-19T06:39:13.925Z,368
2022-12-19T06:41:13.556Z,369
2022-12-19T06:42:14.553Z,370
2022-12-19T06:43:14.580Z,371
2022-12-19T06:44:14.155Z,370
2022-12-19T06:45:13.999Z,361
2022-12-19T06:46:13.469Z,369
2022-12-19T06:47:14.039Z,357
2022-12-19T06:48:13.777Z,363
2022-12-19T06:49:14.205Z,362
2022-12-19T06:50:14.324Z,356
2022-12-19T06:51:14.074Z,380
2022-12-19T06:52:13.233Z,371
2022-12-19T06:53:14.011Z,362
2022-12-19T06:54:13.957Z,355
2022-12-19T06:55:13.857Z,364
2022-12-19T06:56:12.996Z,377
2022-12-19T06:57:14.269Z,376
2022-12-19T06:58:13.779Z,364
2022-12-19T06:59:13.922Z,361
2022-12-19T07:00:14.692Z,372
2022-12-19T07:01:13.711Z,377
2022-12-19T07:02:14.334Z,369
2022-12-19T07:03:14.937Z,366
2022-12-19T07:04:14.824Z,376
2022-12-19T07:05:13.945Z,375
2022-12-19T07:06:14.034Z,373
2022-12-19T07:08:14.726Z,366
2022-12-19T07:09:13.963Z,367
2022-12-19T07:10:19.165Z,369
2022-12-19T07:11:14.017Z,378
2022-12-19T07:12:19.181Z,368
2022-12-19T07:13:14.623Z,385
2022-12-19T07:14:13.902Z,366
2022-12-19T07:15:13.833Z,370
2022-12-19T07:16:14.227Z,375
2022-12-19T07:17:15.106Z,378
2022-12-19T07:18:14.092Z,371
2022-12-19T07:19:14.164Z,365
2022-12-19T07:20:19.622Z,369
2022-12-19T07:21:13.750Z,378
2022-12-19T07:22:21.873Z,373
2022-12-19T07:23:13.645Z,364
2022-12-19T07:24:14.625Z,363
2022-12-19T07:26:13.473Z,374
2022-12-19T07:27:14.390Z,367
2022-12-19T07:28:21.965Z,360
2022-12-19T07:29:13.482Z,367
2022-12-19T07:30:14.715Z,364
2022-12-19T07:31:14.722Z,360
2022-12-19T07:32:13.587Z,368
2022-12-19T07:33:19.692Z,374
2022-12-19T07:34:13.576Z,344
2022-12-19T07:35:14.661Z,357
2022-12-19T07:36:14.294Z,369
2022-12-19T07:37:13.981Z,376
2022-12-19T07:38:13.516Z,369
2022-12-19T07:39:14.101Z,368
2022-12-19T07:40:13.828Z,370
2022-12-19T07:42:13.676Z,363
2022-12-19T07:43:14.233Z,361
2022-12-19T07:44:13.948Z,363
2022-12-19T07:45:14.089Z,368
2022-12-19T07:46:13.570Z,377
2022-12-19T07:47:13.597Z,371
2022-12-19T07:48:14.779Z,374
2022-12-19T07:50:14.712Z,368
2022-12-19T07:51:13.919Z,371
2022-12-19T07:52:13.633Z,368
2022-12-19T07:53:13.603Z,361
2022-12-19T07:54:14.406Z,358
2022-12-19T07:55:14.343Z,393
2022-12-19T07:56:14.047Z,361
2022-12-19T07:57:13.867Z,363
2022-12-19T07:58:13.229Z,366
2022-12-19T07:59:14.484Z,362
2022-12-19T08:01:14.126Z,349
2022-12-19T08:02:14.377Z,357
2022-12-19T08:03:14.643Z,361
2022-12-19T08:04:13.899Z,357
2022-12-19T08:05:14.314Z,372
2022-12-19T08:06:14.613Z,371
2022-12-19T08:07:14.885Z,368
2022-12-19T08:08:13.535Z,363
2022-12-19T08:09:14.510Z,364
2022-12-19T08:10:14.280Z,361
2022-12-19T08:11:14.433Z,363
2022-12-19T08:12:14.727Z,379
2022-12-19T08:14:14.212Z,370
2022-12-19T08:15:15.077Z,371
2022-12-19T08:16:14.251Z,377
2022-12-19T08:17:21.573Z,346
2022-12-19T08:18:13.615Z,355
2022-12-19T08:19:14.140Z,356
2022-12-19T08:20:14.299Z,350
2022-12-19T08:21:14.503Z,359
2022-12-19T08:22:13.718Z,356
2022-12-19T08:23:13.754Z,365
2022-12-19T08:24:13.709Z,371
2022-12-19T08:25:13.815Z,364
2022-12-19T08:26:14.236Z,372
2022-12-19T08:27:14.378Z,371
2022-12-19T08:28:14.562Z,375
2022-12-19T08:29:14.436Z,371
2022-12-19T08:30:14.884Z,369
2022-12-19T08:31:13.731Z,367
2022-12-19T08:32:20.225Z,359
2022-12-19T08:33:14.087Z,370
2022-12-19T08:34:13.603Z,366
2022-12-19T08:35:14.136Z,365
2022-12-19T08:36:14.321Z,363
2022-12-19T08:37:15.305Z,361
2022-12-19T08:38:15.534Z,365
2022-12-19T08:39:14.846Z,369
2022-12-19T08:40:15.053Z,366
2022-12-19T08:41:15.213Z,361
2022-12-19T08:42:14.048Z,365
2022-12-19T08:43:14.952Z,367
2022-12-19T08:44:15.357Z,362
2022-12-19T08:45:14.979Z,365
2022-12-19T08:47:14.916Z,367
2022-12-19T08:48:15.046Z,366
2022-12-19T08:50:14.450Z,369
2022-12-19T08:51:13.967Z,357
2022-12-19T08:52:14.301Z,352
2022-12-19T08:53:14.396Z,356
2022-12-19T08:54:14.438Z,358
2022-12-19T08:55:13.840Z,364
2022-12-19T08:56:13.600Z,365
2022-12-19T08:57:13.826Z,366
2022-12-19T08:58:14.318Z,381
2022-12-19T08:59:15.886Z,370
2022-12-19T09:01:14.792Z,369
2022-12-19T09:02:13.742Z,372
2022-12-19T09:03:13.855Z,363
2022-12-19T09:06:02.335Z,360
2022-12-19T09:06:05.259Z,366
2022-12-19T09:06:25.560Z,370
2022-12-19T09:07:15.243Z,371
2022-12-19T09:08:13.535Z,373
2022-12-19T09:10:13.973Z,368
2022-12-19T09:11:14.515Z,369
2022-12-19T09:12:14.516Z,358
2022-12-19T09:13:14.365Z,362
2022-12-19T09:14:14.524Z,357
2022-12-19T09:15:13.873Z,367
2022-12-19T09:16:13.867Z,375
2022-12-19T09:17:14.148Z,371
2022-12-19T09:18:14.446Z,357
2022-12-19T09:19:13.924Z,382
2022-12-19T09:20:19.639Z,367
2022-12-19T09:21:14.074Z,365
2022-12-19T09:22:14.116Z,366
2022-12-19T09:23:14.534Z,369
2022-12-19T09:24:13.744Z,371
2022-12-19T09:25:13.911Z,372
2022-12-19T09:26:13.845Z,371
2022-12-19T09:27:14.638Z,362
2022-12-19T09:28:27.860Z,373
2022-12-19T09:29:21.015Z,364
2022-12-19T09:30:15.084Z,371
2022-12-19T09:31:14.417Z,375
2022-12-19T09:32:13.728Z,366
2022-12-19T09:33:13.941Z,362
2022-12-19T09:34:14.395Z,361
2022-12-19T09:35:14.794Z,360
2022-12-19T09:36:13.642Z,364
2022-12-19T09:37:16.646Z,359
2022-12-19T09:38:14.684Z,362
2022-12-19T09:40:14.083Z,348
2022-12-19T09:41:19.352Z,378
2022-12-19T09:42:14.443Z,369
2022-12-19T09:43:14.780Z,360
2022-12-19T09:44:14.281Z,364
2022-12-19T09:45:25.911Z,354
2022-12-19T09:46:14.495Z,359
2022-12-19T09:47:14.885Z,354
2022-12-19T09:48:23.593Z,356
2022-12-19T09:49:14.210Z,361
2022-12-19T09:50:14.145Z,370
2022-12-19T09:51:13.652Z,372
2022-12-19T09:52:13.768Z,363
2022-12-19T09:53:13.624Z,355
2022-12-19T09:54:13.496Z,362
2022-12-19T09:55:16.853Z,365
2022-12-19T09:56:14.601Z,371
2022-12-19T09:57:14.309Z,365
2022-12-19T09:58:14.718Z,356
2022-12-19T09:59:14.073Z,359
2022-12-19T10:00:14.621Z,349
2022-12-19T10:01:14.689Z,374
2022-12-19T10:02:14.633Z,379
2022-12-19T10:03:14.496Z,366
2022-12-19T10:04:14.059Z,367
2022-12-19T10:05:28.400Z,366
2022-12-19T10:06:58.113Z,358
2022-12-19T10:07:35.394Z,366
2022-12-19T10:08:14.334Z,370
2022-12-19T10:12:16.946Z,373
2022-12-19T10:12:43.379Z,375
2022-12-19T10:12:45.698Z,378
2022-12-19T10:13:16.560Z,371
2022-12-19T10:14:13.828Z,372
2022-12-19T10:16:14.526Z,370
2022-12-19T10:17:24.805Z,359
2022-12-19T10:19:15.281Z,357
2022-12-19T10:20:15.360Z,369
2022-12-19T10:21:15.453Z,361
2022-12-19T10:22:18.938Z,368
2022-12-19T10:23:14.472Z,367
2022-12-19T10:24:15.565Z,364
2022-12-19T10:25:14.822Z,349
2022-12-19T10:26:14.822Z,366
2022-12-19T10:27:14.975Z,373
2022-12-19T10:28:14.613Z,370
2022-12-19T10:29:14.496Z,366
2022-12-19T10:30:14.495Z,361
2022-12-19T10:31:20.663Z,366
2022-12-19T10:32:14.542Z,369
2022-12-19T10:33:20.198Z,370
2022-12-19T10:34:15.380Z,375
2022-12-19T10:35:14.173Z,374
2022-12-19T10:36:13.993Z,377
2022-12-19T10:37:26.588Z,362
2022-12-19T10:38:14.072Z,354
2022-12-19T10:39:15.344Z,362
2022-12-19T10:40:27.189Z,372
2022-12-19T10:41:14.828Z,381
2022-12-19T10:42:14.699Z,371
2022-12-19T10:43:19.129Z,360
2022-12-19T10:44:13.518Z,365
2022-12-19T10:45:14.924Z,361
2022-12-19T10:46:13.755Z,367
2022-12-19T10:47:13.852Z,365
2022-12-19T10:48:13.820Z,366
2022-12-19T10:49:13.929Z,371
2022-12-19T10:50:14.317Z,378
2022-12-19T10:51:14.325Z,380
2022-12-19T10:52:14.213Z,367
2022-12-19T10:53:13.794Z,355
2022-12-19T10:55:13.615Z,365
2022-12-19T10:56:13.780Z,364
2022-12-19T10:57:14.226Z,366
2022-12-19T10:58:13.849Z,369
2022-12-19T10:59:13.801Z,358
2022-12-19T11:00:14.543Z,362
2022-12-19T11:01:13.838Z,357
2022-12-19T11:02:14.203Z,347
2022-12-19T11:03:16.786Z,393
2022-12-19T11:04:15.197Z,378
2022-12-19T11:05:14.714Z,372
2022-12-19T11:06:13.788Z,368
2022-12-19T11:07:13.713Z,357
2022-12-19T11:08:13.979Z,349
2022-12-19T11:09:14.199Z,359
2022-12-19T11:11:26.141Z,369
2022-12-19T11:14:23.314Z,378
2022-12-19T11:16:38.264Z,383
2022-12-19T11:18:51.171Z,367
2022-12-19T11:19:15.754Z,381
2022-12-19T11:19:45.189Z,377
2022-12-19T11:21:58.855Z,357
2022-12-19T11:23:54.189Z,352
2022-12-19T11:27:51.278Z,364
2022-12-19T11:29:19.697Z,373
2022-12-19T11:29:30.743Z,372
2022-12-19T11:29:32.146Z,372
2022-12-19T11:29:34.683Z,378
2022-12-19T11:29:37.561Z,368
2022-12-19T11:29:37.685Z,366
2022-12-19T11:29:38.399Z,374
2022-12-19T11:29:40.286Z,372
2022-12-19T11:30:34.368Z,374
2022-12-19T11:30:46.771Z,368
2022-12-19T11:30:47.444Z,368
2022-12-19T11:31:53.012Z,364
2022-12-19T11:32:40.284Z,372
2022-12-19T11:33:13.719Z,372
2022-12-19T11:34:14.199Z,381
2022-12-19T11:35:14.369Z,378
2022-12-19T11:36:13.901Z,375
2022-12-19T11:37:14.039Z,369
2022-12-19T11:39:14.596Z,362
2022-12-19T11:40:14.205Z,360
2022-12-19T11:41:14.582Z,378
2022-12-19T11:42:13.520Z,371
2022-12-19T11:43:42.427Z,363
2022-12-19T11:44:14.504Z,331
2022-12-19T11:45:14.424Z,389
2022-12-19T11:47:13.847Z,383
2022-12-19T11:48:13.781Z,372
2022-12-19T11:49:14.151Z,364
2022-12-19T11:52:36.972Z,372
2022-12-19T11:53:18.890Z,375
2022-12-19T11:54:14.616Z,370
2022-12-19T11:55:15.120Z,360
2022-12-19T11:56:16.565Z,368
2022-12-19T11:57:13.726Z,366
2022-12-19T11:58:13.519Z,353
2022-12-19T11:59:13.766Z,356
2022-12-19T12:00:14.417Z,353
2022-12-19T12:01:14.089Z,356
2022-12-19T12:02:14.870Z,362
2022-12-19T12:03:14.260Z,361
2022-12-19T12:04:14.033Z,371
2022-12-19T12:06:13.748Z,367
2022-12-19T12:07:39.276Z,365
2022-12-19T12:10:17.850Z,357
2022-12-19T12:13:14.839Z,366
2022-12-19T12:14:53.218Z,380
2022-12-19T12:17:01.883Z,395
2022-12-19T12:20:43.332Z,387
2022-12-19T12:20:51.585Z,377
2022-12-19T12:22:47.328Z,379
2022-12-19T12:25:11.488Z,379
2022-12-19T12:26:25.935Z,377
2022-12-19T12:31:05.688Z,375
2022-12-19T12:31:06.028Z,377
2022-12-19T12:31:12.321Z,376
2022-12-19T12:31:18.580Z,368
2022-12-19T12:31:27.719Z,372
2022-12-19T12:31:41.610Z,370
2022-12-19T12:31:41.757Z,366
2022-12-19T12:31:44.252Z,342
2022-12-19T12:31:45.129Z,376
2022-12-19T12:31:48.338Z,360
2022-12-19T12:31:51.725Z,369
2022-12-19T12:31:52.361Z,364
2022-12-19T12:32:02.058Z,396
2022-12-19T12:32:05.580Z,368
2022-12-19T12:35:40.782Z,362
2022-12-19T12:35:56.945Z,369
2022-12-19T12:37:47.868Z,367
2022-12-19T12:37:54.133Z,355
2022-12-19T12:38:30.401Z,353
2022-12-19T12:39:18.327Z,353
2022-12-19T12:40:14.105Z,357
2022-12-19T12:41:13.731Z,364
2022-12-19T12:42:13.519Z,362
2022-12-19T12:43:14.796Z,364
2022-12-19T12:44:14.131Z,373
2022-12-19T12:45:14.561Z,360
2022-12-19T12:46:14.420Z,384
2022-12-19T12:47:14.088Z,361
2022-12-19T12:48:13.968Z,351
2022-12-19T12:49:14.314Z,360
2022-12-19T12:50:14.206Z,366
2022-12-19T12:51:14.112Z,367
2022-12-19T12:52:14.176Z,368
2022-12-19T12:53:14.169Z,364
2022-12-19T12:54:14.029Z,371
2022-12-19T12:55:14.161Z,382
2022-12-19T12:56:14.193Z,375
2022-12-19T12:57:14.940Z,369
2022-12-19T12:58:17.051Z,362
2022-12-19T12:59:14.834Z,372
2022-12-19T13:00:14.938Z,374
2022-12-19T13:01:14.619Z,367
2022-12-19T13:02:14.366Z,363
2022-12-19T13:03:14.431Z,367
2022-12-19T13:04:14.657Z,374
2022-12-19T13:05:14.220Z,370
2022-12-19T13:07:13.916Z,365
2022-12-19T13:08:13.899Z,364
2022-12-19T13:09:14.297Z,365
2022-12-19T13:10:14.675Z,364
2022-12-19T13:11:13.890Z,356
2022-12-19T13:12:14.113Z,355
2022-12-19T13:13:15.806Z,362
2022-12-19T13:14:14.627Z,369
2022-12-19T13:15:13.815Z,370
2022-12-19T13:16:13.903Z,364
2022-12-19T13:17:14.370Z,366
2022-12-19T13:18:14.322Z,365
2022-12-19T13:19:19.686Z,364
2022-12-19T13:20:14.243Z,361
2022-12-19T13:21:15.140Z,374
2022-12-19T13:22:14.021Z,380
2022-12-19T13:23:13.977Z,379
2022-12-19T13:24:16.346Z,374
2022-12-19T13:25:14.889Z,365
2022-12-19T13:26:19.585Z,381
2022-12-19T13:27:13.780Z,367
2022-12-19T13:28:13.756Z,363
2022-12-19T13:29:13.976Z,358
2022-12-19T13:30:14.403Z,365
2022-12-19T13:31:21.275Z,364
2022-12-19T13:32:13.859Z,361
2022-12-19T13:33:13.993Z,353
2022-12-19T13:34:14.094Z,366
2022-12-19T13:37:58.785Z,376
2022-12-19T13:39:36.232Z,372
2022-12-19T13:39:47.686Z,371
2022-12-19T13:39:51.037Z,374
2022-12-19T13:39:56.271Z,375
2022-12-19T13:40:56.816Z,365
2022-12-19T13:41:16.893Z,365
2022-12-19T13:43:14.677Z,372
2022-12-19T13:44:14.089Z,362
2022-12-19T13:45:14.723Z,330
2022-12-19T13:46:13.982Z,380
2022-12-19T13:47:16.595Z,366
2022-12-19T13:48:14.811Z,360
2022-12-19T13:49:13.699Z,368
2022-12-19T13:50:14.017Z,374
2022-12-19T13:51:14.412Z,368
2022-12-19T13:52:14.773Z,365
2022-12-19T13:53:13.918Z,363
2022-12-19T13:55:13.864Z,362
2022-12-19T13:56:14.468Z,366
2022-12-19T13:57:14.883Z,364
2022-12-19T13:59:14.188Z,367
2022-12-19T14:00:15.532Z,369
2022-12-19T14:01:20.971Z,379
2022-12-19T14:03:14.021Z,371
2022-12-19T14:04:14.529Z,366
2022-12-19T14:05:13.692Z,377
2022-12-19T14:06:18.304Z,360
2022-12-19T14:07:14.454Z,364
2022-12-19T14:08:14.037Z,351
2022-12-19T14:11:24.527Z,353
2022-12-19T14:11:32.117Z,358
2022-12-19T14:11:37.566Z,356
2022-12-19T14:13:41.251Z,358
2022-12-19T14:13:48.835Z,355
2022-12-19T14:14:27.906Z,364
2022-12-19T14:15:14.802Z,364
2022-12-19T14:16:13.627Z,368
2022-12-19T14:17:14.557Z,367
2022-12-19T14:18:42.447Z,371
2022-12-19T14:20:48.822Z,379
2022-12-19T14:22:03.798Z,370
2022-12-19T14:22:27.236Z,374
2022-12-19T14:23:14.537Z,370
2022-12-19T14:24:14.448Z,360
2022-12-19T14:28:14.535Z,366
2022-12-19T14:28:19.655Z,355
2022-12-19T14:28:25.300Z,358
2022-12-19T14:28:28.222Z,364
2022-12-19T14:29:13.892Z,369
2022-12-19T14:30:29.984Z,370
2022-12-19T14:31:19.011Z,368
2022-12-19T14:33:47.186Z,365
2022-12-19T14:35:13.119Z,378
2022-12-19T14:36:11.169Z,378
2022-12-19T14:36:23.523Z,376
2022-12-19T14:38:03.858Z,363
2022-12-19T14:39:22.535Z,364
2022-12-19T14:39:24.039Z,360
2022-12-19T14:41:21.808Z,355